sensor_id;sensor_type;location;lat;lon;timestamp;P1;durP1;ratioP1;P2;durP2;ratioP2
60478;SDS011;46321;48.398;11.754;2023-06-10T00:00:11;7.95;;;6.40;;
60478;SDS011;46321;48.398;11.754;2023-06-10T00:02:39;8.23;;;6.57;;
60478;SDS011;46321;48.398;11.754;2023-06-10T00:05:05;8.38;;;6.35;;
60478;SDS011;46321;48.398;11.754;2023-06-10T00:07:30;8.70;;;6.72;;
60478;SDS011;46321;48.398;11.754;2023-06-10T00:09:56;9.35;;;6.85;;
60478;SDS011;46321;48.398;11.754;2023-06-10T00:12:22;10.30;;;6.95;;
60478;SDS011;46321;48.398;11.754;2023-06-10T00:14:47;8.73;;;6.72;;
60478;SDS011;46321;48.398;11.754;2023-06-10T00:17:15;8.88;;;6.35;;
60478;SDS011;46321;48.398;11.754;2023-06-10T00:19:40;8.82;;;6.63;;
60478;SDS011;46321;48.398;11.754;2023-06-10T00:22:06;8.55;;;6.38;;
60478;SDS011;46321;48.398;11.754;2023-06-10T00:24:31;8.27;;;6.22;;
60478;SDS011;46321;48.398;11.754;2023-06-10T00:26:56;8.45;;;6.40;;
60478;SDS011;46321;48.398;11.754;2023-06-10T00:29:21;10.93;;;6.13;;
60478;SDS011;46321;48.398;11.754;2023-06-10T00:31:47;9.73;;;6.30;;
60478;SDS011;46321;48.398;11.754;2023-06-10T00:34:12;8.43;;;6.35;;
60478;SDS011;46321;48.398;11.754;2023-06-10T00:36:37;10.15;;;6.90;;
60478;SDS011;46321;48.398;11.754;2023-06-10T00:39:03;10.20;;;6.50;;
60478;SDS011;46321;48.398;11.754;2023-06-10T00:41:29;9.40;;;6.18;;
60478;SDS011;46321;48.398;11.754;2023-06-10T00:43:55;10.27;;;6.53;;
60478;SDS011;46321;48.398;11.754;2023-06-10T00:46:21;9.40;;;6.60;;
60478;SDS011;46321;48.398;11.754;2023-06-10T00:48:48;8.75;;;6.45;;
60478;SDS011;46321;48.398;11.754;2023-06-10T00:51:14;8.85;;;6.60;;
60478;SDS011;46321;48.398;11.754;2023-06-10T00:53:41;9.93;;;6.65;;
60478;SDS011;46321;48.398;11.754;2023-06-10T00:56:07;8.70;;;6.32;;
60478;SDS011;46321;48.398;11.754;2023-06-10T00:58:32;9.85;;;6.63;;
60478;SDS011;46321;48.398;11.754;2023-06-10T01:00:58;9.88;;;6.88;;
60478;SDS011;46321;48.398;11.754;2023-06-10T01:03:23;8.63;;;6.55;;
60478;SDS011;46321;48.398;11.754;2023-06-10T01:05:50;9.80;;;6.88;;
60478;SDS011;46321;48.398;11.754;2023-06-10T01:08:33;11.30;;;6.85;;
60478;SDS011;46321;48.398;11.754;2023-06-10T01:11:03;9.38;;;6.32;;
60478;SDS011;46321;48.398;11.754;2023-06-10T01:13:33;10.30;;;6.70;;
60478;SDS011;46321;48.398;11.754;2023-06-10T01:16:01;9.15;;;6.68;;
60478;SDS011;46321;48.398;11.754;2023-06-10T01:18:29;9.48;;;6.35;;
60478;SDS011;46321;48.398;11.754;2023-06-10T01:20:55;9.25;;;6.65;;
60478;SDS011;46321;48.398;11.754;2023-06-10T01:23:21;11.13;;;6.68;;
60478;SDS011;46321;48.398;11.754;2023-06-10T01:31:13;9.15;;;6.50;;
60478;SDS011;46321;48.398;11.754;2023-06-10T01:33:42;8.75;;;6.40;;
60478;SDS011;46321;48.398;11.754;2023-06-10T01:36:08;9.82;;;6.28;;
60478;SDS011;46321;48.398;11.754;2023-06-10T01:38:36;10.68;;;6.57;;
60478;SDS011;46321;48.398;11.754;2023-06-10T01:41:06;9.05;;;6.45;;
60478;SDS011;46321;48.398;11.754;2023-06-10T01:43:33;11.00;;;6.30;;
60478;SDS011;46321;48.398;11.754;2023-06-10T01:45:59;8.63;;;6.35;;
60478;SDS011;46321;48.398;11.754;2023-06-10T01:48:24;9.55;;;6.57;;
60478;SDS011;46321;48.398;11.754;2023-06-10T01:50:50;10.43;;;6.40;;
60478;SDS011;46321;48.398;11.754;2023-06-10T01:53:15;11.40;;;7.43;;
60478;SDS011;46321;48.398;11.754;2023-06-10T01:55:40;13.57;;;7.68;;
60478;SDS011;46321;48.398;11.754;2023-06-10T01:58:06;12.60;;;8.13;;
60478;SDS011;46321;48.398;11.754;2023-06-10T02:00:31;10.43;;;7.68;;
60478;SDS011;46321;48.398;11.754;2023-06-10T02:02:56;11.90;;;7.07;;
60478;SDS011;46321;48.398;11.754;2023-06-10T02:05:21;10.47;;;6.80;;
60478;SDS011;46321;48.398;11.754;2023-06-10T02:07:47;9.30;;;6.85;;
60478;SDS011;46321;48.398;11.754;2023-06-10T02:10:13;10.75;;;7.32;;
60478;SDS011;46321;48.398;11.754;2023-06-10T02:12:38;12.05;;;7.57;;
60478;SDS011;46321;48.398;11.754;2023-06-10T02:15:03;10.97;;;7.17;;
60478;SDS011;46321;48.398;11.754;2023-06-10T02:17:29;9.73;;;6.55;;
60478;SDS011;46321;48.398;11.754;2023-06-10T02:19:55;9.55;;;6.47;;
60478;SDS011;46321;48.398;11.754;2023-06-10T02:22:22;11.50;;;6.97;;
60478;SDS011;46321;48.398;11.754;2023-06-10T02:24:48;10.25;;;7.20;;
60478;SDS011;46321;48.398;11.754;2023-06-10T02:27:15;10.05;;;6.45;;
60478;SDS011;46321;48.398;11.754;2023-06-10T02:29:41;10.30;;;6.57;;
60478;SDS011;46321;48.398;11.754;2023-06-10T02:32:07;9.68;;;6.30;;
60478;SDS011;46321;48.398;11.754;2023-06-10T02:34:32;13.23;;;6.93;;
60478;SDS011;46321;48.398;11.754;2023-06-10T02:36:58;11.15;;;6.97;;
60478;SDS011;46321;48.398;11.754;2023-06-10T02:39:24;10.30;;;6.72;;
60478;SDS011;46321;48.398;11.754;2023-06-10T02:41:49;10.02;;;6.68;;
60478;SDS011;46321;48.398;11.754;2023-06-10T02:44:14;9.23;;;6.45;;
60478;SDS011;46321;48.398;11.754;2023-06-10T02:46:40;8.77;;;6.45;;
60478;SDS011;46321;48.398;11.754;2023-06-10T02:49:05;12.87;;;7.17;;
60478;SDS011;46321;48.398;11.754;2023-06-10T02:51:31;9.47;;;6.53;;
60478;SDS011;46321;48.398;11.754;2023-06-10T02:53:59;10.25;;;6.63;;
60478;SDS011;46321;48.398;11.754;2023-06-10T02:56:25;10.25;;;6.82;;
60478;SDS011;46321;48.398;11.754;2023-06-10T02:58:51;11.30;;;7.32;;
60478;SDS011;46321;48.398;11.754;2023-06-10T03:01:17;10.75;;;6.72;;
60478;SDS011;46321;48.398;11.754;2023-06-10T03:03:44;9.48;;;6.60;;
60478;SDS011;46321;48.398;11.754;2023-06-10T03:06:11;10.95;;;6.13;;
60478;SDS011;46321;48.398;11.754;2023-06-10T03:08:39;9.68;;;6.30;;
60478;SDS011;46321;48.398;11.754;2023-06-10T03:11:05;8.38;;;6.20;;
60478;SDS011;46321;48.398;11.754;2023-06-10T03:13:31;9.50;;;6.97;;
60478;SDS011;46321;48.398;11.754;2023-06-10T03:15:57;8.85;;;6.45;;
60478;SDS011;46321;48.398;11.754;2023-06-10T03:18:27;12.70;;;7.03;;
60478;SDS011;46321;48.398;11.754;2023-06-10T03:20:54;10.82;;;7.00;;
60478;SDS011;46321;48.398;11.754;2023-06-10T03:23:21;9.77;;;6.43;;
60478;SDS011;46321;48.398;11.754;2023-06-10T03:25:46;10.43;;;6.80;;
60478;SDS011;46321;48.398;11.754;2023-06-10T03:28:12;9.38;;;6.38;;
60478;SDS011;46321;48.398;11.754;2023-06-10T03:30:37;9.23;;;6.00;;
60478;SDS011;46321;48.398;11.754;2023-06-10T03:33:04;10.32;;;7.05;;
60478;SDS011;46321;48.398;11.754;2023-06-10T03:35:29;8.52;;;6.20;;
60478;SDS011;46321;48.398;11.754;2023-06-10T03:37:55;10.70;;;6.53;;
60478;SDS011;46321;48.398;11.754;2023-06-10T03:40:20;10.07;;;6.43;;
60478;SDS011;46321;48.398;11.754;2023-06-10T03:42:46;9.02;;;6.60;;
60478;SDS011;46321;48.398;11.754;2023-06-10T03:45:13;8.85;;;6.00;;
60478;SDS011;46321;48.398;11.754;2023-06-10T03:47:39;10.15;;;6.65;;
60478;SDS011;46321;48.398;11.754;2023-06-10T03:50:07;8.63;;;6.57;;
60478;SDS011;46321;48.398;11.754;2023-06-10T03:52:33;9.32;;;6.13;;
60478;SDS011;46321;48.398;11.754;2023-06-10T03:54:59;9.18;;;6.35;;
60478;SDS011;46321;48.398;11.754;2023-06-10T03:57:24;9.93;;;6.70;;
60478;SDS011;46321;48.398;11.754;2023-06-10T03:59:50;9.07;;;6.43;;
60478;SDS011;46321;48.398;11.754;2023-06-10T04:02:16;7.97;;;5.82;;
60478;SDS011;46321;48.398;11.754;2023-06-10T04:04:41;8.70;;;6.20;;
60478;SDS011;46321;48.398;11.754;2023-06-10T04:07:07;8.30;;;6.03;;
60478;SDS011;46321;48.398;11.754;2023-06-10T04:09:33;9.75;;;6.85;;
60478;SDS011;46321;48.398;11.754;2023-06-10T04:11:59;9.60;;;6.50;;
60478;SDS011;46321;48.398;11.754;2023-06-10T04:14:24;10.70;;;6.97;;
60478;SDS011;46321;48.398;11.754;2023-06-10T04:16:50;7.82;;;6.22;;
60478;SDS011;46321;48.398;11.754;2023-06-10T04:19:18;10.57;;;7.00;;
60478;SDS011;46321;48.398;11.754;2023-06-10T04:21:44;9.82;;;6.82;;
60478;SDS011;46321;48.398;11.754;2023-06-10T04:24:10;9.52;;;6.60;;
60478;SDS011;46321;48.398;11.754;2023-06-10T04:26:35;10.65;;;6.57;;
60478;SDS011;46321;48.398;11.754;2023-06-10T04:29:00;8.23;;;6.15;;
60478;SDS011;46321;48.398;11.754;2023-06-10T04:31:26;10.60;;;6.78;;
60478;SDS011;46321;48.398;11.754;2023-06-10T04:33:51;10.10;;;6.93;;
60478;SDS011;46321;48.398;11.754;2023-06-10T04:36:16;9.90;;;6.07;;
60478;SDS011;46321;48.398;11.754;2023-06-10T04:38:42;9.63;;;6.35;;
60478;SDS011;46321;48.398;11.754;2023-06-10T04:41:07;10.00;;;6.72;;
60478;SDS011;46321;48.398;11.754;2023-06-10T04:43:32;11.37;;;6.57;;
60478;SDS011;46321;48.398;11.754;2023-06-10T04:45:57;10.50;;;7.20;;
60478;SDS011;46321;48.398;11.754;2023-06-10T04:48:23;9.63;;;6.67;;
60478;SDS011;46321;48.398;11.754;2023-06-10T04:50:49;7.95;;;6.18;;
60478;SDS011;46321;48.398;11.754;2023-06-10T04:53:15;11.82;;;8.10;;
60478;SDS011;46321;48.398;11.754;2023-06-10T04:55:40;11.77;;;7.85;;
60478;SDS011;46321;48.398;11.754;2023-06-10T04:58:05;10.15;;;7.13;;
60478;SDS011;46321;48.398;11.754;2023-06-10T05:00:31;9.20;;;6.53;;
60478;SDS011;46321;48.398;11.754;2023-06-10T05:02:56;8.23;;;6.33;;
60478;SDS011;46321;48.398;11.754;2023-06-10T05:05:21;9.55;;;7.10;;
60478;SDS011;46321;48.398;11.754;2023-06-10T05:07:47;9.52;;;6.05;;
60478;SDS011;46321;48.398;11.754;2023-06-10T05:10:12;9.33;;;5.90;;
60478;SDS011;46321;48.398;11.754;2023-06-10T05:12:38;9.23;;;6.43;;
60478;SDS011;46321;48.398;11.754;2023-06-10T05:15:04;9.52;;;6.43;;
60478;SDS011;46321;48.398;11.754;2023-06-10T05:17:30;8.70;;;5.90;;
60478;SDS011;46321;48.398;11.754;2023-06-10T05:19:55;8.63;;;6.20;;
60478;SDS011;46321;48.398;11.754;2023-06-10T05:22:21;8.43;;;6.60;;
60478;SDS011;46321;48.398;11.754;2023-06-10T05:24:48;9.30;;;6.63;;
60478;SDS011;46321;48.398;11.754;2023-06-10T05:27:14;9.00;;;6.43;;
60478;SDS011;46321;48.398;11.754;2023-06-10T05:29:39;9.60;;;6.50;;
60478;SDS011;46321;48.398;11.754;2023-06-10T05:32:11;8.57;;;6.38;;
60478;SDS011;46321;48.398;11.754;2023-06-10T05:34:51;9.82;;;7.30;;
60478;SDS011;46321;48.398;11.754;2023-06-10T05:37:16;10.13;;;6.83;;
60478;SDS011;46321;48.398;11.754;2023-06-10T05:39:42;10.97;;;7.17;;
60478;SDS011;46321;48.398;11.754;2023-06-10T05:42:07;9.80;;;6.47;;
60478;SDS011;46321;48.398;11.754;2023-06-10T05:44:33;9.57;;;6.75;;
60478;SDS011;46321;48.398;11.754;2023-06-10T05:46:58;11.43;;;7.22;;
60478;SDS011;46321;48.398;11.754;2023-06-10T05:49:27;9.98;;;7.22;;
60478;SDS011;46321;48.398;11.754;2023-06-10T05:51:53;10.48;;;6.82;;
60478;SDS011;46321;48.398;11.754;2023-06-10T05:54:18;9.48;;;6.90;;
60478;SDS011;46321;48.398;11.754;2023-06-10T05:56:44;12.15;;;7.18;;
60478;SDS011;46321;48.398;11.754;2023-06-10T05:59:09;15.15;;;9.38;;
60478;SDS011;46321;48.398;11.754;2023-06-10T06:01:34;12.07;;;7.57;;
60478;SDS011;46321;48.398;11.754;2023-06-10T06:04:00;10.95;;;7.25;;
60478;SDS011;46321;48.398;11.754;2023-06-10T06:06:25;15.20;;;8.13;;
60478;SDS011;46321;48.398;11.754;2023-06-10T06:08:50;11.27;;;7.40;;
60478;SDS011;46321;48.398;11.754;2023-06-10T06:11:16;8.90;;;6.87;;
60478;SDS011;46321;48.398;11.754;2023-06-10T06:13:41;9.88;;;7.15;;
60478;SDS011;46321;48.398;11.754;2023-06-10T06:16:07;8.93;;;6.25;;
60478;SDS011;46321;48.398;11.754;2023-06-10T06:18:32;10.00;;;6.85;;
60478;SDS011;46321;48.398;11.754;2023-06-10T06:20:57;11.83;;;7.17;;
60478;SDS011;46321;48.398;11.754;2023-06-10T06:23:23;8.77;;;6.45;;
60478;SDS011;46321;48.398;11.754;2023-06-10T06:25:48;9.13;;;6.03;;
60478;SDS011;46321;48.398;11.754;2023-06-10T06:28:13;11.10;;;8.10;;
60478;SDS011;46321;48.398;11.754;2023-06-10T06:30:38;8.73;;;5.93;;
60478;SDS011;46321;48.398;11.754;2023-06-10T06:33:04;9.77;;;6.30;;
60478;SDS011;46321;48.398;11.754;2023-06-10T06:35:32;9.80;;;6.32;;
60478;SDS011;46321;48.398;11.754;2023-06-10T06:37:59;9.23;;;6.15;;
60478;SDS011;46321;48.398;11.754;2023-06-10T06:40:24;12.00;;;7.07;;
60478;SDS011;46321;48.398;11.754;2023-06-10T06:42:49;10.38;;;6.68;;
60478;SDS011;46321;48.398;11.754;2023-06-10T06:45:15;8.38;;;6.10;;
60478;SDS011;46321;48.398;11.754;2023-06-10T06:47:40;10.70;;;6.30;;
60478;SDS011;46321;48.398;11.754;2023-06-10T06:50:05;8.43;;;6.03;;
60478;SDS011;46321;48.398;11.754;2023-06-10T06:52:31;9.65;;;6.25;;
60478;SDS011;46321;48.398;11.754;2023-06-10T06:54:56;8.45;;;5.72;;
60478;SDS011;46321;48.398;11.754;2023-06-10T06:57:21;8.40;;;6.17;;
60478;SDS011;46321;48.398;11.754;2023-06-10T06:59:48;9.48;;;6.22;;
60478;SDS011;46321;48.398;11.754;2023-06-10T07:02:13;11.73;;;6.95;;
60478;SDS011;46321;48.398;11.754;2023-06-10T07:04:38;9.23;;;6.28;;
60478;SDS011;46321;48.398;11.754;2023-06-10T07:07:06;9.52;;;6.90;;
60478;SDS011;46321;48.398;11.754;2023-06-10T07:09:32;8.63;;;6.47;;
60478;SDS011;46321;48.398;11.754;2023-06-10T07:11:57;9.67;;;6.73;;
60478;SDS011;46321;48.398;11.754;2023-06-10T07:14:22;9.30;;;6.40;;
60478;SDS011;46321;48.398;11.754;2023-06-10T07:16:48;8.87;;;6.00;;
60478;SDS011;46321;48.398;11.754;2023-06-10T07:19:14;9.23;;;6.05;;
60478;SDS011;46321;48.398;11.754;2023-06-10T07:21:39;11.18;;;7.20;;
60478;SDS011;46321;48.398;11.754;2023-06-10T07:24:05;9.47;;;6.37;;
60478;SDS011;46321;48.398;11.754;2023-06-10T07:26:30;8.55;;;5.80;;
60478;SDS011;46321;48.398;11.754;2023-06-10T07:28:56;7.70;;;6.03;;
60478;SDS011;46321;48.398;11.754;2023-06-10T07:31:21;8.53;;;5.97;;
60478;SDS011;46321;48.398;11.754;2023-06-10T07:33:46;8.27;;;6.27;;
60478;SDS011;46321;48.398;11.754;2023-06-10T07:36:12;9.10;;;6.28;;
60478;SDS011;46321;48.398;11.754;2023-06-10T07:38:37;9.10;;;6.23;;
60478;SDS011;46321;48.398;11.754;2023-06-10T07:41:02;9.73;;;6.60;;
60478;SDS011;46321;48.398;11.754;2023-06-10T07:43:28;9.98;;;6.25;;
60478;SDS011;46321;48.398;11.754;2023-06-10T07:45:53;8.20;;;5.93;;
60478;SDS011;46321;48.398;11.754;2023-06-10T07:48:18;7.90;;;6.17;;
60478;SDS011;46321;48.398;11.754;2023-06-10T07:50:44;8.38;;;6.10;;
60478;SDS011;46321;48.398;11.754;2023-06-10T07:53:09;7.85;;;5.95;;
60478;SDS011;46321;48.398;11.754;2023-06-10T07:55:35;8.80;;;6.47;;
60478;SDS011;46321;48.398;11.754;2023-06-10T07:58:00;8.10;;;6.40;;
60478;SDS011;46321;48.398;11.754;2023-06-10T08:00:25;8.90;;;6.53;;
60478;SDS011;46321;48.398;11.754;2023-06-10T08:02:50;11.07;;;6.63;;
60478;SDS011;46321;48.398;11.754;2023-06-10T08:05:16;8.88;;;5.95;;
60478;SDS011;46321;48.398;11.754;2023-06-10T08:07:42;7.95;;;5.80;;
60478;SDS011;46321;48.398;11.754;2023-06-10T08:10:07;7.53;;;5.77;;
60478;SDS011;46321;48.398;11.754;2023-06-10T08:12:33;7.60;;;5.40;;
60478;SDS011;46321;48.398;11.754;2023-06-10T08:14:59;9.68;;;5.90;;
60478;SDS011;46321;48.398;11.754;2023-06-10T08:17:25;7.63;;;5.40;;
60478;SDS011;46321;48.398;11.754;2023-06-10T08:19:50;7.70;;;6.03;;
60478;SDS011;46321;48.398;11.754;2023-06-10T08:22:15;10.97;;;6.13;;
60478;SDS011;46321;48.398;11.754;2023-06-10T08:24:40;6.88;;;5.15;;
60478;SDS011;46321;48.398;11.754;2023-06-10T08:27:06;7.47;;;6.07;;
60478;SDS011;46321;48.398;11.754;2023-06-10T08:29:31;10.00;;;7.85;;
60478;SDS011;46321;48.398;11.754;2023-06-10T08:31:57;7.78;;;6.13;;
60478;SDS011;46321;48.398;11.754;2023-06-10T08:34:22;8.52;;;6.07;;
60478;SDS011;46321;48.398;11.754;2023-06-10T08:36:48;6.55;;;5.25;;
60478;SDS011;46321;48.398;11.754;2023-06-10T08:39:18;6.55;;;5.10;;
60478;SDS011;46321;48.398;11.754;2023-06-10T08:41:43;6.82;;;5.95;;
60478;SDS011;46321;48.398;11.754;2023-06-10T08:44:32;8.30;;;5.05;;
60478;SDS011;46321;48.398;11.754;2023-06-10T08:47:03;8.23;;;5.35;;
60478;SDS011;46321;48.398;11.754;2023-06-10T08:49:33;6.75;;;5.55;;
60478;SDS011;46321;48.398;11.754;2023-06-10T08:52:03;6.80;;;5.35;;
60478;SDS011;46321;48.398;11.754;2023-06-10T08:54:32;7.05;;;5.10;;
60478;SDS011;46321;48.398;11.754;2023-06-10T08:57:01;6.78;;;5.13;;
60478;SDS011;46321;48.398;11.754;2023-06-10T08:59:30;6.18;;;4.93;;
60478;SDS011;46321;48.398;11.754;2023-06-10T09:01:56;5.57;;;4.70;;
60478;SDS011;46321;48.398;11.754;2023-06-10T09:04:22;5.95;;;4.85;;
60478;SDS011;46321;48.398;11.754;2023-06-10T09:06:49;6.43;;;4.50;;
60478;SDS011;46321;48.398;11.754;2023-06-10T09:09:15;5.68;;;4.72;;
60478;SDS011;46321;48.398;11.754;2023-06-10T09:11:42;6.22;;;4.90;;
60478;SDS011;46321;48.398;11.754;2023-06-10T09:14:07;6.47;;;5.13;;
60478;SDS011;46321;48.398;11.754;2023-06-10T09:16:33;5.50;;;4.75;;
60478;SDS011;46321;48.398;11.754;2023-06-10T09:18:58;6.22;;;4.93;;
60478;SDS011;46321;48.398;11.754;2023-06-10T09:21:24;14.48;;;9.55;;
60478;SDS011;46321;48.398;11.754;2023-06-10T09:23:51;6.40;;;5.30;;
60478;SDS011;46321;48.398;11.754;2023-06-10T09:26:16;5.78;;;4.88;;
60478;SDS011;46321;48.398;11.754;2023-06-10T09:28:43;7.20;;;4.53;;
60478;SDS011;46321;48.398;11.754;2023-06-10T09:31:09;6.43;;;4.78;;
60478;SDS011;46321;48.398;11.754;2023-06-10T09:33:37;7.53;;;4.70;;
60478;SDS011;46321;48.398;11.754;2023-06-10T09:36:04;5.47;;;4.10;;
60478;SDS011;46321;48.398;11.754;2023-06-10T09:38:31;5.30;;;3.90;;
60478;SDS011;46321;48.398;11.754;2023-06-10T09:40:57;4.97;;;4.20;;
60478;SDS011;46321;48.398;11.754;2023-06-10T09:43:22;5.40;;;4.47;;
60478;SDS011;46321;48.398;11.754;2023-06-10T09:45:48;5.20;;;4.55;;
60478;SDS011;46321;48.398;11.754;2023-06-10T09:48:15;4.80;;;4.25;;
60478;SDS011;46321;48.398;11.754;2023-06-10T09:50:43;5.00;;;3.83;;
60478;SDS011;46321;48.398;11.754;2023-06-10T09:53:10;5.47;;;4.55;;
60478;SDS011;46321;48.398;11.754;2023-06-10T09:55:39;6.22;;;5.10;;
60478;SDS011;46321;48.398;11.754;2023-06-10T09:58:05;5.05;;;4.25;;
60478;SDS011;46321;48.398;11.754;2023-06-10T10:00:33;6.70;;;5.00;;
60478;SDS011;46321;48.398;11.754;2023-06-10T10:02:59;5.10;;;4.60;;
60478;SDS011;46321;48.398;11.754;2023-06-10T10:05:25;4.72;;;3.95;;
60478;SDS011;46321;48.398;11.754;2023-06-10T10:07:52;5.63;;;4.07;;
60478;SDS011;46321;48.398;11.754;2023-06-10T10:10:18;5.60;;;4.72;;
60478;SDS011;46321;48.398;11.754;2023-06-10T10:12:48;5.88;;;4.50;;
60478;SDS011;46321;48.398;11.754;2023-06-10T10:15:18;5.40;;;4.57;;
60478;SDS011;46321;48.398;11.754;2023-06-10T10:17:48;4.82;;;4.03;;
60478;SDS011;46321;48.398;11.754;2023-06-10T10:20:20;4.55;;;3.72;;
60478;SDS011;46321;48.398;11.754;2023-06-10T10:22:51;4.70;;;4.03;;
60478;SDS011;46321;48.398;11.754;2023-06-10T10:25:23;4.38;;;3.97;;
60478;SDS011;46321;48.398;11.754;2023-06-10T10:27:51;4.40;;;3.60;;
60478;SDS011;46321;48.398;11.754;2023-06-10T10:30:22;4.93;;;4.03;;
60478;SDS011;46321;48.398;11.754;2023-06-10T10:32:56;4.03;;;3.63;;
60478;SDS011;46321;48.398;11.754;2023-06-10T10:35:28;5.00;;;3.85;;
60478;SDS011;46321;48.398;11.754;2023-06-10T10:37:55;5.82;;;3.85;;
60478;SDS011;46321;48.398;11.754;2023-06-10T10:40:24;4.63;;;4.10;;
60478;SDS011;46321;48.398;11.754;2023-06-10T10:42:50;5.88;;;4.22;;
60478;SDS011;46321;48.398;11.754;2023-06-10T10:45:16;4.85;;;4.30;;
60478;SDS011;46321;48.398;11.754;2023-06-10T10:47:42;7.63;;;4.70;;
60478;SDS011;46321;48.398;11.754;2023-06-10T10:50:14;5.32;;;4.65;;
60478;SDS011;46321;48.398;11.754;2023-06-10T10:53:14;5.47;;;4.50;;
60478;SDS011;46321;48.398;11.754;2023-06-10T10:55:33;5.27;;;4.40;;
60478;SDS011;46321;48.398;11.754;2023-06-10T10:57:59;5.18;;;4.68;;
60478;SDS011;46321;48.398;11.754;2023-06-10T11:02:58;5.80;;;4.28;;
60478;SDS011;46321;48.398;11.754;2023-06-10T11:05:35;5.10;;;4.57;;
60478;SDS011;46321;48.398;11.754;2023-06-10T11:08:03;4.88;;;4.28;;
60478;SDS011;46321;48.398;11.754;2023-06-10T11:10:32;4.95;;;4.40;;
60478;SDS011;46321;48.398;11.754;2023-06-10T11:12:59;5.30;;;4.68;;
60478;SDS011;46321;48.398;11.754;2023-06-10T11:15:25;5.53;;;4.20;;
60478;SDS011;46321;48.398;11.754;2023-06-10T11:20:50;4.50;;;4.05;;
60478;SDS011;46321;48.398;11.754;2023-06-10T11:28:40;4.43;;;3.75;;
60478;SDS011;46321;48.398;11.754;2023-06-10T11:31:06;4.97;;;4.20;;
60478;SDS011;46321;48.398;11.754;2023-06-10T11:33:32;5.43;;;4.30;;
60478;SDS011;46321;48.398;11.754;2023-06-10T11:35:57;4.65;;;4.15;;
60478;SDS011;46321;48.398;11.754;2023-06-10T11:38:24;4.50;;;3.90;;
60478;SDS011;46321;48.398;11.754;2023-06-10T11:40:49;5.55;;;4.70;;
60478;SDS011;46321;48.398;11.754;2023-06-10T11:43:18;4.50;;;3.90;;
60478;SDS011;46321;48.398;11.754;2023-06-10T11:45:44;4.38;;;3.92;;
60478;SDS011;46321;48.398;11.754;2023-06-10T11:48:11;4.57;;;4.10;;
60478;SDS011;46321;48.398;11.754;2023-06-10T11:50:37;4.80;;;3.90;;
60478;SDS011;46321;48.398;11.754;2023-06-10T11:53:03;4.50;;;4.10;;
60478;SDS011;46321;48.398;11.754;2023-06-10T11:55:50;5.07;;;4.20;;
60478;SDS011;46321;48.398;11.754;2023-06-10T11:58:16;4.55;;;4.13;;
60478;SDS011;46321;48.398;11.754;2023-06-10T12:00:48;5.15;;;4.38;;
60478;SDS011;46321;48.398;11.754;2023-06-10T12:03:16;7.18;;;3.58;;
60478;SDS011;46321;48.398;11.754;2023-06-10T12:05:57;5.50;;;4.20;;
60478;SDS011;46321;48.398;11.754;2023-06-10T12:08:23;5.28;;;3.83;;
60478;SDS011;46321;48.398;11.754;2023-06-10T12:10:49;5.65;;;4.00;;
60478;SDS011;46321;48.398;11.754;2023-06-10T12:13:14;4.25;;;3.85;;
60478;SDS011;46321;48.398;11.754;2023-06-10T12:15:40;6.63;;;3.97;;
60478;SDS011;46321;48.398;11.754;2023-06-10T12:18:05;6.93;;;4.00;;
60478;SDS011;46321;48.398;11.754;2023-06-10T12:20:31;6.18;;;4.47;;
60478;SDS011;46321;48.398;11.754;2023-06-10T12:23:07;6.75;;;4.25;;
60478;SDS011;46321;48.398;11.754;2023-06-10T12:25:34;5.53;;;4.22;;
60478;SDS011;46321;48.398;11.754;2023-06-10T12:28:01;6.20;;;4.55;;
60478;SDS011;46321;48.398;11.754;2023-06-10T12:30:27;7.10;;;4.50;;
60478;SDS011;46321;48.398;11.754;2023-06-10T12:32:53;8.18;;;4.63;;
60478;SDS011;46321;48.398;11.754;2023-06-10T12:35:22;6.07;;;4.15;;
60478;SDS011;46321;48.398;11.754;2023-06-10T12:38:09;8.45;;;4.75;;
60478;SDS011;46321;48.398;11.754;2023-06-10T12:40:37;4.80;;;4.10;;
60478;SDS011;46321;48.398;11.754;2023-06-10T12:43:05;6.40;;;4.75;;
60478;SDS011;46321;48.398;11.754;2023-06-10T12:45:32;5.75;;;4.47;;
60478;SDS011;46321;48.398;11.754;2023-06-10T12:48:08;5.88;;;4.53;;
60478;SDS011;46321;48.398;11.754;2023-06-10T12:50:35;6.35;;;4.68;;
60478;SDS011;46321;48.398;11.754;2023-06-10T12:53:05;5.50;;;4.60;;
60478;SDS011;46321;48.398;11.754;2023-06-10T12:55:31;5.00;;;4.15;;
60478;SDS011;46321;48.398;11.754;2023-06-10T12:57:57;6.15;;;4.78;;
60478;SDS011;46321;48.398;11.754;2023-06-10T13:00:23;5.25;;;4.35;;
60478;SDS011;46321;48.398;11.754;2023-06-10T13:02:54;5.78;;;4.43;;
60478;SDS011;46321;48.398;11.754;2023-06-10T13:05:25;5.72;;;4.82;;
60478;SDS011;46321;48.398;11.754;2023-06-10T13:07:51;4.82;;;4.15;;
60478;SDS011;46321;48.398;11.754;2023-06-10T13:10:16;6.10;;;4.67;;
60478;SDS011;46321;48.398;11.754;2023-06-10T13:12:42;4.57;;;3.88;;
60478;SDS011;46321;48.398;11.754;2023-06-10T13:15:08;3.45;;;3.10;;
60478;SDS011;46321;48.398;11.754;2023-06-10T13:17:34;5.25;;;3.65;;
60478;SDS011;46321;48.398;11.754;2023-06-10T13:20:01;4.00;;;3.45;;
60478;SDS011;46321;48.398;11.754;2023-06-10T13:22:30;4.30;;;3.20;;
60478;SDS011;46321;48.398;11.754;2023-06-10T13:24:57;3.97;;;3.10;;
60478;SDS011;46321;48.398;11.754;2023-06-10T13:27:22;3.85;;;3.30;;
60478;SDS011;46321;48.398;11.754;2023-06-10T13:29:48;4.90;;;3.53;;
60478;SDS011;46321;48.398;11.754;2023-06-10T13:32:13;3.77;;;2.97;;
60478;SDS011;46321;48.398;11.754;2023-06-10T13:34:38;4.57;;;3.03;;
60478;SDS011;46321;48.398;11.754;2023-06-10T13:37:04;5.60;;;3.30;;
60478;SDS011;46321;48.398;11.754;2023-06-10T13:39:30;4.10;;;3.47;;
60478;SDS011;46321;48.398;11.754;2023-06-10T13:41:55;4.77;;;3.47;;
60478;SDS011;46321;48.398;11.754;2023-06-10T13:44:20;3.77;;;3.07;;
60478;SDS011;46321;48.398;11.754;2023-06-10T13:46:46;3.50;;;2.90;;
60478;SDS011;46321;48.398;11.754;2023-06-10T13:49:11;3.40;;;3.03;;
60478;SDS011;46321;48.398;11.754;2023-06-10T13:51:36;3.42;;;3.10;;
60478;SDS011;46321;48.398;11.754;2023-06-10T13:54:02;3.42;;;3.00;;
60478;SDS011;46321;48.398;11.754;2023-06-10T13:56:27;3.53;;;3.17;;
60478;SDS011;46321;48.398;11.754;2023-06-10T13:58:53;4.32;;;3.40;;
60478;SDS011;46321;48.398;11.754;2023-06-10T14:01:18;3.70;;;2.88;;
60478;SDS011;46321;48.398;11.754;2023-06-10T14:03:44;3.88;;;3.05;;
60478;SDS011;46321;48.398;11.754;2023-06-10T14:06:09;4.30;;;3.20;;
60478;SDS011;46321;48.398;11.754;2023-06-10T14:08:37;4.50;;;3.42;;
60478;SDS011;46321;48.398;11.754;2023-06-10T14:11:03;4.15;;;3.67;;
60478;SDS011;46321;48.398;11.754;2023-06-10T14:13:28;5.63;;;3.53;;
60478;SDS011;46321;48.398;11.754;2023-06-10T14:15:54;4.63;;;3.72;;
60478;SDS011;46321;48.398;11.754;2023-06-10T14:18:19;5.07;;;3.95;;
60478;SDS011;46321;48.398;11.754;2023-06-10T14:20:45;5.17;;;3.63;;
60478;SDS011;46321;48.398;11.754;2023-06-10T14:23:10;5.50;;;3.57;;
60478;SDS011;46321;48.398;11.754;2023-06-10T14:25:35;5.30;;;3.70;;
60478;SDS011;46321;48.398;11.754;2023-06-10T14:28:01;4.40;;;3.70;;
60478;SDS011;46321;48.398;11.754;2023-06-10T14:30:26;4.67;;;3.97;;
60478;SDS011;46321;48.398;11.754;2023-06-10T14:32:51;5.87;;;3.43;;
60478;SDS011;46321;48.398;11.754;2023-06-10T14:35:16;3.57;;;3.03;;
60478;SDS011;46321;48.398;11.754;2023-06-10T14:37:42;2.90;;;2.50;;
60478;SDS011;46321;48.398;11.754;2023-06-10T14:40:07;3.00;;;2.70;;
60478;SDS011;46321;48.398;11.754;2023-06-10T14:42:33;3.92;;;2.80;;